< < Back
Terminal Aerodrome Forecast


Current Version              Previous Versions:   1  2  3  4  5  6  7  8  9  

Terminal Aerodrome Forecast

777
FTUS44 KOHX 281700
TAFCSV
TAF
KCSV 281731Z 2818/2918 34010KT P6SM SKC
     FM290000 VRB02KT P6SM SCT250
     FM291400 16008G15KT P6SM SCT250=

Latest METAR

621
SAUS70 KWBC 290400 RRQ
MTRCSV
METAR KCSV 290353Z AUTO 01004KT 10SM CLR M01/M11 A3029 RMK AO2 SLP268
T10061111


USA.gov is the U.S. government's official web portal to all federal, state and local government web resources and services.